createdAt,value
2019-01-14T00:01:19.377Z,1.20
2019-01-14T00:03:23.110Z,1.10
2019-01-14T00:05:26.758Z,1.20
2019-01-14T00:07:30.516Z,1.20
2019-01-14T00:09:34.197Z,1.40
2019-01-14T00:11:37.895Z,1.20
2019-01-14T00:13:41.656Z,1.40
2019-01-14T00:15:45.308Z,1.20
2019-01-14T00:17:48.960Z,1.40
2019-01-14T00:19:52.655Z,1.60
2019-01-14T00:21:56.307Z,1.40
2019-01-14T00:24:00.036Z,1.27
2019-01-14T00:26:03.787Z,1.50
2019-01-14T00:28:07.491Z,1.50
2019-01-14T00:30:13.970Z,1.10
2019-01-14T00:32:17.624Z,1.30
2019-01-14T00:34:21.611Z,1.30
2019-01-14T00:36:25.775Z,1.60
2019-01-14T00:38:29.444Z,1.50
2019-01-14T00:40:33.264Z,1.30
2019-01-14T00:42:37.015Z,1.40
2019-01-14T00:44:40.683Z,0.90
2019-01-14T00:46:44.338Z,1.10
2019-01-14T00:48:48.099Z,1.20
2019-01-14T00:50:51.803Z,1.00
2019-01-14T00:52:55.557Z,1.00
2019-01-14T00:54:59.370Z,1.13
2019-01-14T00:57:03.039Z,1.10
2019-01-14T00:59:06.682Z,1.20
2019-01-14T01:01:10.368Z,1.00
2019-01-14T01:03:14.023Z,0.97
2019-01-14T01:05:17.712Z,1.20
2019-01-14T01:07:21.361Z,1.10
2019-01-14T01:09:25.038Z,1.33
2019-01-14T01:11:28.975Z,1.27
2019-01-14T01:13:32.630Z,1.10
2019-01-14T01:15:36.303Z,1.23
2019-01-14T01:17:39.991Z,1.50
2019-01-14T01:19:43.673Z,1.43
2019-01-14T01:21:47.375Z,1.40
2019-01-14T01:23:51.066Z,2.00
2019-01-14T01:25:54.721Z,1.50
2019-01-14T01:27:58.440Z,1.80
2019-01-14T01:30:02.099Z,1.53
2019-01-14T01:32:05.915Z,1.60
2019-01-14T01:34:09.577Z,2.00
2019-01-14T01:36:13.271Z,1.80
2019-01-14T01:38:16.922Z,1.70
2019-01-14T01:40:20.577Z,1.60
2019-01-14T01:42:24.268Z,1.50
2019-01-14T01:44:27.909Z,1.97
2019-01-14T01:46:31.590Z,1.77
2019-01-14T01:48:35.268Z,1.87
2019-01-14T01:50:39.025Z,1.57
2019-01-14T01:52:42.706Z,1.60
2019-01-14T01:54:46.358Z,1.70
2019-01-14T01:56:50.018Z,1.70
2019-01-14T01:58:53.794Z,1.70
2019-01-14T02:00:57.443Z,1.90
2019-01-14T02:03:01.090Z,1.57
2019-01-14T02:05:07.109Z,1.53
2019-01-14T02:07:10.758Z,1.93
2019-01-14T02:09:14.434Z,1.47
2019-01-14T02:11:18.102Z,1.50
2019-01-14T02:13:21.765Z,1.50
2019-01-14T02:15:25.451Z,1.40
2019-01-14T02:17:29.116Z,1.63
2019-01-14T02:19:32.798Z,1.70
2019-01-14T02:21:36.454Z,1.70
2019-01-14T02:23:40.284Z,1.50
2019-01-14T02:25:43.966Z,1.70
2019-01-14T02:27:47.615Z,1.90
2019-01-14T02:29:51.330Z,1.80
2019-01-14T02:31:55.028Z,1.80
2019-01-14T02:33:58.682Z,1.70
2019-01-14T02:36:02.675Z,1.60
2019-01-14T02:38:06.334Z,1.70
2019-01-14T02:40:13.188Z,1.90
2019-01-14T02:42:16.848Z,1.50
2019-01-14T02:44:20.569Z,1.50
2019-01-14T02:46:24.256Z,1.70
2019-01-14T02:48:27.909Z,1.40
2019-01-14T02:50:31.563Z,1.60
2019-01-14T02:52:39.748Z,1.53
2019-01-14T02:54:42.303Z,2.03
2019-01-14T02:56:45.979Z,1.83
2019-01-14T02:58:49.639Z,2.00
2019-01-14T03:00:53.317Z,1.77
2019-01-14T03:02:56.974Z,1.57
2019-01-14T03:05:00.638Z,1.93
2019-01-14T03:07:04.517Z,1.80
2019-01-14T03:09:08.671Z,1.90
2019-01-14T03:11:12.478Z,2.93
2019-01-14T03:13:16.125Z,1.47
2019-01-14T03:15:19.775Z,2.77
2019-01-14T03:17:23.442Z,1.70
2019-01-14T03:19:27.090Z,1.70
2019-01-14T03:21:30.775Z,1.83
2019-01-14T03:23:34.435Z,1.47
2019-01-14T03:25:38.093Z,1.60
2019-01-14T03:27:41.776Z,1.87
2019-01-14T03:29:45.435Z,2.33
2019-01-14T03:31:49.205Z,1.60
2019-01-14T03:33:53.459Z,1.57
2019-01-14T03:35:57.218Z,1.63
2019-01-14T03:38:00.908Z,1.63
2019-01-14T03:40:10.270Z,1.80
2019-01-14T03:42:13.986Z,1.60
2019-01-14T03:44:17.637Z,1.50
2019-01-14T03:46:21.313Z,1.70
2019-01-14T03:48:25.007Z,1.40
2019-01-14T03:50:28.677Z,1.97
2019-01-14T03:52:32.329Z,1.50
2019-01-14T03:54:36.049Z,1.60
2019-01-14T03:56:39.704Z,1.60
2019-01-14T03:58:43.395Z,1.80
2019-01-14T04:00:47.053Z,2.07
2019-01-14T04:02:50.727Z,1.90
2019-01-14T04:04:54.379Z,1.70
2019-01-14T04:06:58.077Z,1.90
2019-01-14T04:09:01.762Z,1.50
2019-01-14T04:11:05.413Z,1.70
2019-01-14T04:13:09.074Z,1.63
2019-01-14T04:15:17.698Z,1.67
2019-01-14T04:17:21.346Z,1.40
2019-01-14T04:19:25.033Z,1.50
2019-01-14T04:21:28.682Z,2.10
2019-01-14T04:23:32.337Z,1.77
2019-01-14T04:25:36.023Z,1.70
2019-01-14T04:27:39.670Z,2.20
2019-01-14T04:29:43.366Z,2.07
2019-01-14T04:31:47.119Z,1.97
2019-01-14T04:33:50.779Z,2.50
2019-01-14T04:35:54.632Z,1.80
2019-01-14T04:37:58.284Z,1.70
2019-01-14T04:40:01.964Z,1.67
2019-01-14T04:42:05.615Z,1.60
2019-01-14T04:44:09.285Z,1.73
2019-01-14T04:46:12.969Z,1.60
2019-01-14T04:48:16.618Z,2.00
2019-01-14T04:50:21.394Z,1.70
2019-01-14T04:52:25.075Z,1.57
2019-01-14T04:54:28.739Z,1.73
2019-01-14T04:56:32.416Z,1.77
2019-01-14T04:58:36.070Z,1.83
2019-01-14T05:00:39.754Z,1.90
2019-01-14T05:02:43.414Z,1.40
2019-01-14T05:04:47.072Z,1.83
2019-01-14T05:06:50.747Z,2.17
2019-01-14T05:08:54.406Z,1.70
2019-01-14T05:10:58.062Z,1.80
2019-01-14T05:13:01.751Z,1.80
2019-01-14T05:15:08.009Z,1.90
2019-01-14T05:17:11.782Z,1.67
2019-01-14T05:19:15.441Z,2.00
2019-01-14T05:21:19.146Z,2.27
2019-01-14T05:23:22.811Z,2.33
2019-01-14T05:25:26.574Z,1.60
2019-01-14T05:27:30.245Z,2.10
2019-01-14T05:29:33.914Z,1.80
2019-01-14T05:31:37.766Z,1.80
2019-01-14T05:33:41.424Z,2.00
2019-01-14T05:35:45.083Z,1.90
2019-01-14T05:37:48.766Z,2.20
2019-01-14T05:39:52.439Z,2.03
2019-01-14T05:41:56.102Z,2.50
2019-01-14T05:43:59.784Z,2.33
2019-01-14T05:46:03.454Z,1.83
2019-01-14T05:48:07.136Z,1.70
2019-01-14T05:50:13.890Z,2.00
2019-01-14T05:52:17.593Z,1.77
2019-01-14T05:54:21.310Z,1.67
2019-01-14T05:56:24.975Z,1.63
2019-01-14T05:58:28.666Z,1.67
2019-01-14T06:00:34.597Z,1.80
2019-01-14T06:02:38.249Z,1.70
2019-01-14T06:04:42.047Z,1.70
2019-01-14T06:06:45.714Z,1.60
2019-01-14T06:08:49.394Z,2.17
2019-01-14T06:10:53.057Z,1.87
2019-01-14T06:12:56.708Z,2.27
2019-01-14T06:15:00.421Z,1.80
2019-01-14T06:17:04.371Z,1.87
2019-01-14T06:19:08.376Z,2.00
2019-01-14T06:21:12.024Z,2.40
2019-01-14T06:23:15.682Z,1.60
2019-01-14T06:25:19.769Z,2.10
2019-01-14T06:27:23.442Z,2.00
2019-01-14T06:29:27.125Z,1.80
2019-01-14T06:31:30.779Z,2.13
2019-01-14T06:33:34.442Z,1.93
2019-01-14T06:35:38.123Z,2.10
2019-01-14T06:37:41.788Z,2.23
2019-01-14T06:39:45.446Z,2.40
2019-01-14T06:41:49.097Z,2.07
2019-01-14T06:43:52.765Z,2.13
2019-01-14T06:45:56.441Z,2.00
2019-01-14T06:48:00.103Z,2.13
2019-01-14T06:50:06.981Z,2.17
2019-01-14T06:52:10.630Z,2.50
2019-01-14T06:54:14.308Z,2.13
2019-01-14T06:56:17.987Z,1.97
2019-01-14T06:58:21.705Z,2.30
2019-01-14T07:00:26.500Z,2.10
2019-01-14T07:02:30.164Z,2.53
2019-01-14T07:04:33.823Z,2.17
2019-01-14T07:06:37.506Z,2.50
2019-01-14T07:08:41.157Z,2.40
2019-01-14T07:10:44.842Z,2.67
2019-01-14T07:12:48.501Z,2.20
2019-01-14T07:14:52.151Z,2.80
2019-01-14T07:16:55.878Z,2.83
2019-01-14T07:18:59.624Z,2.40
2019-01-14T07:21:03.406Z,2.50
2019-01-14T07:23:08.265Z,2.57
2019-01-14T07:25:12.381Z,2.97
2019-01-14T07:27:16.110Z,3.10
2019-01-14T07:29:19.870Z,2.20
2019-01-14T07:31:23.555Z,2.50
2019-01-14T07:33:27.231Z,2.57
2019-01-14T07:35:30.881Z,2.77
2019-01-14T07:37:34.633Z,2.60
2019-01-14T07:39:38.323Z,2.90
2019-01-14T07:41:42.001Z,2.93
2019-01-14T07:43:45.679Z,2.47
2019-01-14T07:45:49.342Z,2.40
2019-01-14T07:47:53.184Z,2.57
2019-01-14T07:49:56.860Z,2.70
2019-01-14T07:52:00.543Z,2.63
2019-01-14T07:54:04.216Z,2.47
2019-01-14T07:56:07.990Z,2.37
2019-01-14T07:58:11.672Z,2.73
2019-01-14T08:00:20.516Z,2.50
2019-01-14T08:02:24.199Z,3.00
2019-01-14T08:04:27.864Z,2.47
2019-01-14T08:06:31.543Z,2.60
2019-01-14T08:08:35.225Z,2.57
2019-01-14T08:10:38.983Z,2.63
2019-01-14T08:12:42.635Z,2.33
2019-01-14T08:14:46.319Z,2.30
2019-01-14T08:16:49.982Z,2.60
2019-01-14T08:18:53.739Z,2.43
2019-01-14T08:20:57.398Z,2.03
2019-01-14T08:23:01.084Z,1.90
2019-01-14T08:25:06.062Z,2.50
2019-01-14T08:27:09.715Z,2.33
2019-01-14T08:29:13.395Z,2.90
2019-01-14T08:31:17.051Z,2.27
2019-01-14T08:33:20.728Z,2.23
2019-01-14T08:35:24.379Z,2.40
2019-01-14T08:37:28.034Z,2.70
2019-01-14T08:39:31.821Z,2.20
2019-01-14T08:41:35.888Z,2.40
2019-01-14T08:43:39.851Z,2.63
2019-01-14T08:45:43.591Z,2.50
2019-01-14T08:47:47.254Z,2.40
2019-01-14T08:49:50.939Z,2.33
2019-01-14T08:51:54.591Z,2.27
2019-01-14T08:53:58.291Z,1.87
2019-01-14T08:56:02.083Z,2.50
2019-01-14T08:58:05.750Z,2.10
2019-01-14T09:00:17.050Z,2.97
2019-01-14T09:02:20.843Z,2.47
2019-01-14T09:04:24.571Z,2.57
2019-01-14T09:06:28.242Z,3.10
2019-01-14T09:08:31.906Z,1.87
2019-01-14T09:10:35.607Z,2.20
2019-01-14T09:12:39.299Z,2.10
2019-01-14T09:14:42.995Z,2.20
2019-01-14T09:16:46.649Z,2.50
2019-01-14T09:18:50.308Z,1.70
2019-01-14T09:20:54.115Z,2.50
2019-01-14T09:22:57.786Z,2.00
2019-01-14T09:25:01.452Z,2.10
2019-01-14T09:27:05.356Z,2.57
2019-01-14T09:29:09.001Z,2.70
2019-01-14T09:31:12.660Z,2.23
2019-01-14T09:33:16.350Z,2.40
2019-01-14T09:35:20.107Z,2.03
2019-01-14T09:37:23.781Z,2.13
2019-01-14T09:39:27.450Z,2.33
2019-01-14T09:41:31.127Z,2.67
2019-01-14T09:43:34.791Z,2.13
2019-01-14T09:45:38.444Z,2.03
2019-01-14T09:47:42.333Z,1.97
2019-01-14T09:49:45.988Z,2.33
2019-01-14T09:51:49.683Z,2.20
2019-01-14T09:53:53.349Z,2.10
2019-01-14T09:55:56.992Z,2.53
2019-01-14T09:58:00.688Z,3.10
2019-01-14T10:00:07.275Z,2.47
2019-01-14T10:02:10.958Z,2.20
2019-01-14T10:04:14.618Z,2.10
2019-01-14T10:06:18.304Z,2.63
2019-01-14T10:08:21.966Z,2.90
2019-01-14T10:10:25.622Z,2.43
2019-01-14T10:12:29.352Z,2.50
2019-01-14T10:14:33.128Z,2.20
2019-01-14T10:16:37.082Z,2.30
2019-01-14T10:18:40.787Z,2.37
2019-01-14T10:20:45.281Z,2.53
2019-01-14T10:22:49.009Z,2.63
2019-01-14T10:24:52.693Z,2.70
2019-01-14T10:26:56.362Z,2.57
2019-01-14T10:29:00.135Z,2.60
2019-01-14T10:31:03.841Z,2.37
2019-01-14T10:33:07.521Z,2.53
2019-01-14T10:35:11.180Z,2.50
2019-01-14T10:37:14.940Z,2.40
2019-01-14T10:39:18.634Z,3.10
2019-01-14T10:41:22.281Z,2.90
2019-01-14T10:43:25.979Z,2.30
2019-01-14T10:45:29.670Z,2.30
2019-01-14T10:47:33.422Z,2.03
2019-01-14T10:49:37.149Z,2.27
2019-01-14T10:51:40.819Z,2.20
2019-01-14T10:53:44.473Z,2.53
2019-01-14T10:55:48.173Z,2.63
2019-01-14T10:57:51.839Z,3.13
2019-01-14T10:59:55.541Z,2.70
2019-01-14T11:01:59.181Z,2.70
2019-01-14T11:04:03.035Z,2.70
2019-01-14T11:06:06.683Z,3.17
2019-01-14T11:08:10.346Z,2.37
2019-01-14T11:10:14.015Z,2.83
2019-01-14T11:12:17.656Z,2.50
2019-01-14T11:14:21.311Z,2.73
2019-01-14T11:16:25.036Z,2.97
2019-01-14T11:18:28.679Z,2.47
2019-01-14T11:20:32.352Z,2.67
2019-01-14T11:22:35.999Z,2.83
2019-01-14T11:24:51.493Z,2.73
2019-01-14T11:26:55.187Z,3.00
2019-01-14T11:28:58.974Z,2.90
2019-01-14T11:31:06.592Z,2.60
2019-01-14T11:33:10.252Z,2.70
2019-01-14T11:35:13.947Z,3.10
2019-01-14T11:37:17.633Z,2.60
2019-01-14T11:39:21.281Z,2.70
2019-01-14T11:41:24.989Z,2.90
2019-01-14T11:43:28.654Z,2.57
2019-01-14T11:45:32.347Z,3.13
2019-01-14T11:47:36.006Z,2.40
2019-01-14T11:49:39.666Z,3.17
2019-01-14T11:51:43.346Z,2.33
2019-01-14T11:53:47.112Z,2.23
2019-01-14T11:55:50.816Z,2.67
2019-01-14T11:57:54.450Z,2.80
2019-01-14T11:59:58.115Z,2.70
2019-01-14T12:02:01.821Z,3.00
2019-01-14T12:04:05.570Z,2.80
2019-01-14T12:06:09.260Z,2.40
2019-01-14T12:08:12.926Z,2.73
2019-01-14T12:10:16.581Z,2.73
2019-01-14T12:12:20.265Z,3.20
2019-01-14T12:14:24.036Z,3.40
2019-01-14T12:16:27.723Z,2.60
2019-01-14T12:18:31.369Z,3.00
2019-01-14T12:20:35.029Z,2.40
2019-01-14T12:22:38.731Z,2.73
2019-01-14T12:24:42.406Z,2.53
2019-01-14T12:26:46.063Z,2.27
2019-01-14T12:28:49.745Z,2.73
2019-01-14T12:30:53.402Z,2.30
2019-01-14T12:32:57.086Z,2.80
2019-01-14T12:35:00.779Z,1.90
2019-01-14T12:37:04.438Z,2.30
2019-01-14T12:39:08.730Z,2.10
2019-01-14T12:41:12.393Z,2.20
2019-01-14T12:43:16.071Z,2.50
2019-01-14T12:45:20.332Z,2.70
2019-01-14T12:47:23.987Z,2.50
2019-01-14T12:49:27.670Z,2.67
2019-01-14T12:51:31.334Z,2.80
2019-01-14T12:53:35.060Z,2.63
2019-01-14T12:55:38.733Z,2.30
2019-01-14T12:57:42.396Z,2.70
2019-01-14T12:59:46.183Z,2.40
2019-01-14T13:01:49.866Z,2.80
2019-01-14T13:03:53.646Z,2.47
2019-01-14T13:05:57.312Z,2.30
2019-01-14T13:08:00.962Z,2.93
2019-01-14T13:10:07.654Z,2.57
2019-01-14T13:12:11.454Z,2.57
2019-01-14T13:14:15.337Z,2.40
2019-01-14T13:16:18.989Z,2.80
2019-01-14T13:18:22.663Z,2.97
2019-01-14T13:20:26.419Z,4.10
2019-01-14T13:22:30.167Z,2.90
2019-01-14T13:24:33.859Z,2.50
2019-01-14T13:26:37.557Z,2.63
2019-01-14T13:28:41.215Z,2.70
2019-01-14T13:30:44.920Z,2.13
2019-01-14T13:32:48.580Z,1.30
2019-01-14T13:34:52.260Z,1.87
2019-01-14T13:36:56.067Z,0.90
2019-01-14T13:38:59.763Z,1.40
2019-01-14T13:41:03.451Z,0.83
2019-01-14T13:43:07.113Z,0.80
2019-01-14T13:45:16.460Z,0.93
2019-01-14T13:47:20.134Z,0.80
2019-01-14T13:49:23.875Z,0.87
2019-01-14T13:51:27.560Z,1.00
2019-01-14T13:53:31.215Z,0.73
2019-01-14T13:55:34.928Z,0.70
2019-01-14T13:57:38.675Z,0.87
2019-01-14T13:59:42.335Z,0.80
2019-01-14T14:01:46.024Z,1.10
2019-01-14T14:03:49.793Z,0.80
2019-01-14T14:05:53.475Z,1.03
2019-01-14T14:07:57.171Z,0.80
2019-01-14T14:10:00.824Z,1.30
2019-01-14T14:12:04.495Z,0.90
2019-01-14T14:14:08.159Z,0.80
2019-01-14T14:16:11.916Z,1.07
2019-01-14T14:18:15.582Z,0.87
2019-01-14T14:20:19.555Z,1.10
2019-01-14T14:22:23.372Z,1.10
2019-01-14T14:24:27.029Z,1.77
2019-01-14T14:26:30.714Z,1.40
2019-01-14T14:28:34.402Z,1.00
2019-01-14T14:30:38.280Z,1.40
2019-01-14T14:32:42.042Z,1.30
2019-01-14T14:34:45.703Z,1.77
2019-01-14T14:36:49.370Z,1.77
2019-01-14T14:38:53.030Z,2.60
2019-01-14T14:40:56.662Z,1.63
2019-01-14T14:43:00.343Z,1.37
2019-01-14T14:45:05.201Z,1.57
2019-01-14T14:47:09.413Z,1.50
2019-01-14T14:49:13.350Z,2.03
2019-01-14T14:51:17.003Z,2.03
2019-01-14T14:53:20.746Z,1.60
2019-01-14T14:55:24.415Z,1.77
2019-01-14T14:57:28.955Z,2.20
2019-01-14T14:59:32.624Z,1.30
2019-01-14T15:01:36.287Z,2.57
2019-01-14T15:03:40.003Z,1.73
2019-01-14T15:05:43.651Z,1.40
2019-01-14T15:07:47.327Z,1.60
2019-01-14T15:09:55.774Z,1.77
2019-01-14T15:11:56.470Z,1.40
2019-01-14T15:14:00.142Z,2.40
2019-01-14T15:16:03.803Z,2.00
2019-01-14T15:18:07.501Z,1.80
2019-01-14T15:20:14.063Z,1.20
2019-01-14T15:22:17.723Z,1.90
2019-01-14T15:24:21.426Z,1.87
2019-01-14T15:26:25.079Z,2.10
2019-01-14T15:28:28.759Z,2.00
2019-01-14T15:30:32.521Z,1.60
2019-01-14T15:32:36.177Z,1.90
2019-01-14T15:34:40.824Z,1.60
2019-01-14T15:36:44.532Z,1.50
2019-01-14T15:38:48.233Z,2.37
2019-01-14T15:40:51.896Z,1.47
2019-01-14T15:42:55.595Z,1.60
2019-01-14T15:44:59.302Z,1.50
2019-01-14T15:47:02.979Z,1.87
2019-01-14T15:49:06.635Z,1.37
2019-01-14T15:51:10.292Z,1.83
2019-01-14T15:53:13.954Z,1.67
2019-01-14T15:55:19.941Z,2.30
2019-01-14T15:57:23.599Z,1.50
2019-01-14T15:59:27.251Z,1.40
2019-01-14T16:01:30.930Z,1.67
2019-01-14T16:03:34.599Z,1.73
2019-01-14T16:05:38.269Z,2.13
2019-01-14T16:07:41.919Z,1.93
2019-01-14T16:09:45.619Z,1.93
2019-01-14T16:11:50.474Z,1.70
2019-01-14T16:13:54.156Z,1.73
2019-01-14T16:15:57.834Z,1.77
2019-01-14T16:18:01.491Z,1.83
2019-01-14T16:20:08.089Z,1.70
2019-01-14T16:22:11.771Z,1.57
2019-01-14T16:24:15.435Z,1.70
2019-01-14T16:26:19.120Z,2.47
2019-01-14T16:28:22.806Z,2.10
2019-01-14T16:30:26.450Z,2.77
2019-01-14T16:32:31.324Z,4.50
2019-01-14T16:34:34.994Z,3.50
2019-01-14T16:36:38.820Z,3.30
2019-01-14T16:38:42.511Z,2.43
2019-01-14T16:40:46.187Z,3.57
2019-01-14T16:42:49.876Z,3.03
2019-01-14T16:44:53.559Z,4.13
2019-01-14T16:46:57.222Z,3.20
2019-01-14T16:49:01.012Z,2.50
2019-01-14T16:51:04.702Z,2.60
2019-01-14T16:53:09.412Z,3.50
2019-01-14T16:55:14.897Z,4.30
2019-01-14T16:57:18.571Z,5.77
2019-01-14T16:59:22.232Z,5.83
2019-01-14T17:01:25.909Z,3.93
2019-01-14T17:03:29.566Z,3.30
2019-01-14T17:05:33.224Z,4.60
2019-01-14T17:07:36.919Z,2.93
2019-01-14T17:09:41.170Z,3.30
2019-01-14T17:11:44.942Z,2.97
2019-01-14T17:13:48.626Z,2.70
2019-01-14T17:15:52.294Z,2.60
2019-01-14T17:17:56.042Z,3.07
2019-01-14T17:19:59.726Z,4.23
2019-01-14T17:22:03.418Z,3.67
2019-01-14T17:24:07.102Z,4.07
2019-01-14T17:26:10.755Z,3.37
2019-01-14T17:28:14.464Z,3.00
2019-01-14T17:30:18.137Z,3.33
2019-01-14T17:32:21.873Z,4.13
2019-01-14T17:34:25.592Z,3.40
2019-01-14T17:36:29.246Z,2.30
2019-01-14T17:38:32.918Z,4.37
2019-01-14T17:40:36.606Z,2.90
2019-01-14T17:42:40.254Z,2.93
2019-01-14T17:44:43.956Z,2.87
2019-01-14T17:46:47.599Z,2.73
2019-01-14T17:48:51.249Z,3.30
2019-01-14T17:50:55.023Z,3.27
2019-01-14T17:52:58.803Z,3.20
2019-01-14T17:55:02.497Z,3.17
2019-01-14T17:57:06.194Z,3.23
2019-01-14T17:59:10.160Z,4.30
2019-01-14T18:01:13.979Z,3.20
2019-01-14T18:03:17.658Z,3.20
2019-01-14T18:05:21.332Z,3.33
2019-01-14T18:07:24.983Z,4.73
2019-01-14T18:09:28.657Z,4.37
2019-01-14T18:11:32.358Z,3.93
2019-01-14T18:13:36.022Z,4.67
2019-01-14T18:15:39.811Z,5.30
2019-01-14T18:17:44.265Z,4.10
2019-01-14T18:19:48.032Z,4.10
2019-01-14T18:21:52.039Z,4.30
2019-01-14T18:23:55.747Z,4.33
2019-01-14T18:25:59.421Z,3.90
2019-01-14T18:28:03.093Z,3.73
2019-01-14T18:30:12.234Z,4.20
2019-01-14T18:32:15.978Z,4.37
2019-01-14T18:34:19.632Z,5.03
2019-01-14T18:36:23.326Z,4.97
2019-01-14T18:38:26.988Z,3.73
2019-01-14T18:40:33.905Z,3.90
2019-01-14T18:42:36.090Z,3.90
2019-01-14T18:44:39.791Z,5.00
2019-01-14T18:46:43.481Z,3.70
2019-01-14T18:48:47.130Z,4.07
2019-01-14T18:50:50.794Z,4.50
2019-01-14T18:52:54.463Z,4.23
2019-01-14T18:54:58.123Z,4.53
2019-01-14T18:57:01.777Z,4.10
2019-01-14T18:59:05.531Z,3.83
2019-01-14T19:01:09.194Z,4.10
2019-01-14T19:03:12.879Z,3.53
2019-01-14T19:05:16.548Z,4.13
2019-01-14T19:07:20.308Z,3.47
2019-01-14T19:09:24.021Z,3.73
2019-01-14T19:11:27.674Z,2.93
2019-01-14T19:13:31.367Z,3.57
2019-01-14T19:15:35.024Z,3.27
2019-01-14T19:17:38.739Z,3.60
2019-01-14T19:19:42.389Z,2.70
2019-01-14T19:21:46.067Z,2.50
2019-01-14T19:23:49.750Z,2.50
2019-01-14T19:25:53.429Z,2.90
2019-01-14T19:27:57.113Z,4.00
2019-01-14T19:30:00.777Z,2.90
2019-01-14T19:32:05.650Z,3.20
2019-01-14T19:34:09.473Z,3.67
2019-01-14T19:36:13.142Z,3.13
2019-01-14T19:38:16.807Z,2.87
2019-01-14T19:40:20.586Z,3.00
2019-01-14T19:42:24.239Z,2.97
2019-01-14T19:44:28.046Z,3.07
2019-01-14T19:46:31.758Z,3.33
2019-01-14T19:48:35.481Z,3.07
2019-01-14T19:50:39.117Z,3.23
2019-01-14T19:52:42.770Z,3.60
2019-01-14T19:54:46.462Z,3.50
2019-01-14T19:56:50.133Z,2.97
2019-01-14T19:58:53.835Z,3.03
2019-01-14T20:00:57.606Z,3.40
2019-01-14T20:03:01.370Z,2.97
2019-01-14T20:05:06.975Z,3.10
2019-01-14T20:07:12.327Z,2.63
2019-01-14T20:09:16.146Z,2.63
2019-01-14T20:11:19.878Z,3.30
2019-01-14T20:13:23.550Z,3.00
2019-01-14T20:15:27.271Z,2.73
2019-01-14T20:17:30.916Z,3.47
2019-01-14T20:19:34.574Z,3.07
2019-01-14T20:21:38.274Z,3.10
2019-01-14T20:23:41.943Z,3.67
2019-01-14T20:25:45.648Z,3.30
2019-01-14T20:27:49.325Z,3.20
2019-01-14T20:29:53.105Z,3.30
2019-01-14T20:31:56.866Z,3.20
2019-01-14T20:34:00.527Z,2.73
2019-01-14T20:36:04.210Z,2.97
2019-01-14T20:38:07.891Z,3.13
2019-01-14T20:40:14.142Z,3.13
2019-01-14T20:42:17.944Z,2.67
2019-01-14T20:44:21.603Z,2.70
2019-01-14T20:46:25.286Z,2.90
2019-01-14T20:48:28.969Z,3.13
2019-01-14T20:50:32.635Z,3.20
2019-01-14T20:52:36.312Z,2.90
2019-01-14T20:54:39.979Z,2.63
2019-01-14T20:56:43.674Z,2.60
2019-01-14T20:58:47.319Z,2.90
2019-01-14T21:00:50.974Z,2.40
2019-01-14T21:02:54.652Z,2.50
2019-01-14T21:04:58.310Z,2.60
2019-01-14T21:07:02.097Z,2.53
2019-01-14T21:09:06.955Z,3.10
2019-01-14T21:11:10.622Z,2.93
2019-01-14T21:13:14.291Z,2.30
2019-01-14T21:15:17.960Z,2.87
2019-01-14T21:17:21.758Z,2.60
2019-01-14T21:19:25.512Z,2.60
2019-01-14T21:21:29.244Z,2.57
2019-01-14T21:23:32.967Z,2.57
2019-01-14T21:25:36.611Z,2.83
2019-01-14T21:27:40.259Z,2.60
2019-01-14T21:29:43.954Z,2.40
2019-01-14T21:31:47.697Z,3.13
2019-01-14T21:33:51.488Z,2.93
2019-01-14T21:35:55.171Z,3.57
2019-01-14T21:37:58.882Z,3.10
2019-01-14T21:40:02.546Z,2.80
2019-01-14T21:42:06.182Z,2.40
2019-01-14T21:44:09.874Z,2.47
2019-01-14T21:46:13.531Z,2.90
2019-01-14T21:48:17.578Z,2.63
2019-01-14T21:50:21.597Z,2.50
2019-01-14T21:52:25.266Z,2.60
2019-01-14T21:54:28.950Z,2.83
2019-01-14T21:56:32.999Z,2.77
2019-01-14T21:58:36.750Z,2.70
2019-01-14T22:00:40.414Z,2.70
2019-01-14T22:02:44.078Z,2.80
2019-01-14T22:04:47.754Z,3.50
2019-01-14T22:06:51.422Z,3.07
2019-01-14T22:08:55.093Z,3.13
2019-01-14T22:10:58.783Z,3.00
2019-01-14T22:13:02.431Z,3.23
2019-01-14T22:15:08.317Z,2.80
2019-01-14T22:17:11.995Z,2.83
2019-01-14T22:19:15.675Z,2.97
2019-01-14T22:21:19.367Z,3.13
2019-01-14T22:23:23.034Z,2.80
2019-01-14T22:25:26.713Z,3.67
2019-01-14T22:27:30.366Z,2.90
2019-01-14T22:29:34.027Z,3.40
2019-01-14T22:31:37.723Z,3.23
2019-01-14T22:33:41.373Z,3.10
2019-01-14T22:35:45.049Z,2.77
2019-01-14T22:37:48.713Z,2.73
2019-01-14T22:39:52.395Z,3.13
2019-01-14T22:41:56.057Z,2.93
2019-01-14T22:43:59.707Z,2.40
2019-01-14T22:46:03.389Z,2.53
2019-01-14T22:48:07.042Z,2.53
2019-01-14T22:50:13.211Z,2.70
2019-01-14T22:52:16.889Z,3.03
2019-01-14T22:54:20.535Z,2.53
2019-01-14T22:56:24.355Z,2.50
2019-01-14T22:58:28.019Z,2.73
2019-01-14T23:01:03.573Z,2.50
2019-01-14T23:03:07.290Z,2.70
2019-01-14T23:05:10.934Z,2.70
2019-01-14T23:07:14.587Z,2.33
2019-01-14T23:09:18.274Z,2.23
2019-01-14T23:11:21.935Z,2.70
2019-01-14T23:13:25.611Z,2.37
2019-01-14T23:15:29.271Z,2.83
2019-01-14T23:17:33.046Z,2.57
2019-01-14T23:19:36.718Z,2.30
2019-01-14T23:21:40.370Z,2.83
2019-01-14T23:23:44.058Z,2.53
2019-01-14T23:25:47.817Z,3.37
2019-01-14T23:27:51.469Z,2.87
2019-01-14T23:29:55.146Z,2.63
2019-01-14T23:31:58.804Z,2.97
2019-01-14T23:34:02.490Z,3.17
2019-01-14T23:36:06.339Z,2.90
2019-01-14T23:38:10.002Z,2.60
2019-01-14T23:40:13.675Z,2.80
2019-01-14T23:42:17.343Z,3.30
2019-01-14T23:44:21.022Z,2.87
2019-01-14T23:46:24.713Z,2.80
2019-01-14T23:48:28.358Z,3.00
2019-01-14T23:50:32.046Z,2.50
2019-01-14T23:52:35.703Z,2.77
2019-01-14T23:54:39.402Z,2.43
2019-01-14T23:56:43.084Z,2.33
2019-01-14T23:58:46.755Z,2.70
